Aviation Digital Data Service (ADDS)

Output produced by METARs form (0141 UTC 04 July 2015)
found at http://aviationweather.gov/adds/metars/
 
KBPT 040053Z 18006KT 10SM CLR 28/24 A2997 RMK AO2 SLP148 T02830239